sensor_id;sensor_type;location;lat;lon;timestamp;P1;durP1;ratioP1;P2;durP2;ratioP2
3916;SDS011;1973;50.518;7.318;2023-02-16T00:01:23;26.97;;;17.43;;
3916;SDS011;1973;50.518;7.318;2023-02-16T00:03:51;24.63;;;15.70;;
3916;SDS011;1973;50.518;7.318;2023-02-16T00:06:19;24.27;;;15.87;;
3916;SDS011;1973;50.518;7.318;2023-02-16T00:08:47;22.97;;;15.07;;
3916;SDS011;1973;50.518;7.318;2023-02-16T00:11:36;26.53;;;18.07;;
3916;SDS011;1973;50.518;7.318;2023-02-16T00:14:21;29.83;;;17.10;;
3916;SDS011;1973;50.518;7.318;2023-02-16T00:16:48;28.97;;;18.83;;
3916;SDS011;1973;50.518;7.318;2023-02-16T00:19:22;24.67;;;15.53;;
3916;SDS011;1973;50.518;7.318;2023-02-16T00:21:50;27.77;;;18.30;;
3916;SDS011;1973;50.518;7.318;2023-02-16T00:24:18;25.87;;;17.00;;
3916;SDS011;1973;50.518;7.318;2023-02-16T00:26:45;27.47;;;18.10;;
3916;SDS011;1973;50.518;7.318;2023-02-16T00:29:16;27.20;;;18.00;;
3916;SDS011;1973;50.518;7.318;2023-02-16T00:31:46;27.53;;;18.13;;
3916;SDS011;1973;50.518;7.318;2023-02-16T00:36:55;28.90;;;17.17;;
3916;SDS011;1973;50.518;7.318;2023-02-16T00:39:23;25.50;;;17.47;;
3916;SDS011;1973;50.518;7.318;2023-02-16T00:41:53;26.37;;;18.73;;
3916;SDS011;1973;50.518;7.318;2023-02-16T00:44:41;32.10;;;18.63;;
3916;SDS011;1973;50.518;7.318;2023-02-16T00:49:53;22.57;;;16.03;;
3916;SDS011;1973;50.518;7.318;2023-02-16T00:55:04;25.87;;;16.57;;
3916;SDS011;1973;50.518;7.318;2023-02-16T00:57:38;25.03;;;17.53;;
3916;SDS011;1973;50.518;7.318;2023-02-16T01:02:38;25.80;;;16.80;;
3916;SDS011;1973;50.518;7.318;2023-02-16T01:05:04;25.70;;;17.57;;
3916;SDS011;1973;50.518;7.318;2023-02-16T01:07:31;24.27;;;16.67;;
3916;SDS011;1973;50.518;7.318;2023-02-16T01:10:19;28.27;;;17.00;;
3916;SDS011;1973;50.518;7.318;2023-02-16T01:13:04;20.47;;;14.63;;
3916;SDS011;1973;50.518;7.318;2023-02-16T01:15:31;26.10;;;16.70;;
3916;SDS011;1973;50.518;7.318;2023-02-16T01:17:57;23.30;;;16.10;;
3916;SDS011;1973;50.518;7.318;2023-02-16T01:20:24;27.63;;;16.47;;
3916;SDS011;1973;50.518;7.318;2023-02-16T01:22:52;28.67;;;17.20;;
3916;SDS011;1973;50.518;7.318;2023-02-16T01:25:18;27.03;;;17.73;;
3916;SDS011;1973;50.518;7.318;2023-02-16T01:27:46;25.77;;;16.63;;
3916;SDS011;1973;50.518;7.318;2023-02-16T01:30:15;27.20;;;16.23;;
3916;SDS011;1973;50.518;7.318;2023-02-16T01:32:44;26.63;;;17.47;;
3916;SDS011;1973;50.518;7.318;2023-02-16T01:35:20;29.37;;;18.23;;
3916;SDS011;1973;50.518;7.318;2023-02-16T01:37:53;32.77;;;19.40;;
3916;SDS011;1973;50.518;7.318;2023-02-16T01:43:20;30.03;;;17.87;;
3916;SDS011;1973;50.518;7.318;2023-02-16T01:45:50;29.87;;;18.63;;
3916;SDS011;1973;50.518;7.318;2023-02-16T01:48:26;29.20;;;17.77;;
3916;SDS011;1973;50.518;7.318;2023-02-16T01:51:04;27.00;;;18.50;;
3916;SDS011;1973;50.518;7.318;2023-02-16T01:53:44;24.80;;;15.93;;
3916;SDS011;1973;50.518;7.318;2023-02-16T02:02:07;28.23;;;17.47;;
3916;SDS011;1973;50.518;7.318;2023-02-16T02:04:49;26.90;;;18.20;;
3916;SDS011;1973;50.518;7.318;2023-02-16T02:10:38;29.10;;;18.50;;
3916;SDS011;1973;50.518;7.318;2023-02-16T02:16:04;29.70;;;18.17;;
3916;SDS011;1973;50.518;7.318;2023-02-16T02:18:32;31.27;;;18.00;;
3916;SDS011;1973;50.518;7.318;2023-02-16T02:24:36;27.27;;;16.70;;
3916;SDS011;1973;50.518;7.318;2023-02-16T02:35:33;29.70;;;17.20;;
3916;SDS011;1973;50.518;7.318;2023-02-16T02:38:17;25.27;;;16.93;;
3916;SDS011;1973;50.518;7.318;2023-02-16T02:43:43;32.03;;;19.27;;
3916;SDS011;1973;50.518;7.318;2023-02-16T02:46:18;29.40;;;17.90;;
3916;SDS011;1973;50.518;7.318;2023-02-16T02:48:49;26.77;;;16.87;;
3916;SDS011;1973;50.518;7.318;2023-02-16T02:51:16;32.47;;;18.97;;
3916;SDS011;1973;50.518;7.318;2023-02-16T03:05:47;28.33;;;17.30;;
3916;SDS011;1973;50.518;7.318;2023-02-16T03:08:19;26.80;;;17.67;;
3916;SDS011;1973;50.518;7.318;2023-02-16T03:10:50;26.77;;;16.93;;
3916;SDS011;1973;50.518;7.318;2023-02-16T03:13:41;32.43;;;17.03;;
3916;SDS011;1973;50.518;7.318;2023-02-16T03:16:12;28.00;;;17.97;;
3916;SDS011;1973;50.518;7.318;2023-02-16T03:18:42;25.63;;;17.03;;
3916;SDS011;1973;50.518;7.318;2023-02-16T03:21:28;26.67;;;17.93;;
3916;SDS011;1973;50.518;7.318;2023-02-16T03:24:17;25.83;;;16.50;;
3916;SDS011;1973;50.518;7.318;2023-02-16T03:27:08;31.43;;;19.53;;
3916;SDS011;1973;50.518;7.318;2023-02-16T03:29:53;32.40;;;19.47;;
3916;SDS011;1973;50.518;7.318;2023-02-16T03:32:22;27.83;;;18.07;;
3916;SDS011;1973;50.518;7.318;2023-02-16T03:34:49;29.83;;;18.50;;
3916;SDS011;1973;50.518;7.318;2023-02-16T03:37:16;30.33;;;17.87;;
3916;SDS011;1973;50.518;7.318;2023-02-16T03:39:42;28.87;;;18.63;;
3916;SDS011;1973;50.518;7.318;2023-02-16T03:42:27;34.10;;;20.33;;
3916;SDS011;1973;50.518;7.318;2023-02-16T03:44:54;29.60;;;17.93;;
3916;SDS011;1973;50.518;7.318;2023-02-16T03:47:20;28.13;;;19.80;;
3916;SDS011;1973;50.518;7.318;2023-02-16T03:49:47;31.40;;;19.17;;
3916;SDS011;1973;50.518;7.318;2023-02-16T03:52:14;30.40;;;18.40;;
3916;SDS011;1973;50.518;7.318;2023-02-16T03:54:40;27.83;;;18.93;;
3916;SDS011;1973;50.518;7.318;2023-02-16T03:57:06;30.33;;;19.33;;
3916;SDS011;1973;50.518;7.318;2023-02-16T03:59:33;27.10;;;17.53;;
3916;SDS011;1973;50.518;7.318;2023-02-16T04:01:59;32.17;;;19.63;;
3916;SDS011;1973;50.518;7.318;2023-02-16T04:04:26;32.87;;;18.80;;
3916;SDS011;1973;50.518;7.318;2023-02-16T04:06:52;32.00;;;19.30;;
3916;SDS011;1973;50.518;7.318;2023-02-16T04:09:19;33.90;;;21.77;;
3916;SDS011;1973;50.518;7.318;2023-02-16T04:11:45;31.00;;;19.90;;
3916;SDS011;1973;50.518;7.318;2023-02-16T04:14:30;30.87;;;19.90;;
3916;SDS011;1973;50.518;7.318;2023-02-16T04:16:56;30.23;;;19.13;;
3916;SDS011;1973;50.518;7.318;2023-02-16T04:19:23;29.90;;;19.23;;
3916;SDS011;1973;50.518;7.318;2023-02-16T04:21:49;31.30;;;18.93;;
3916;SDS011;1973;50.518;7.318;2023-02-16T04:24:18;31.20;;;20.03;;
3916;SDS011;1973;50.518;7.318;2023-02-16T04:26:44;34.27;;;20.00;;
3916;SDS011;1973;50.518;7.318;2023-02-16T04:29:11;32.60;;;20.00;;
3916;SDS011;1973;50.518;7.318;2023-02-16T04:31:37;31.67;;;20.50;;
3916;SDS011;1973;50.518;7.318;2023-02-16T04:34:04;29.10;;;18.03;;
3916;SDS011;1973;50.518;7.318;2023-02-16T04:36:30;32.77;;;19.97;;
3916;SDS011;1973;50.518;7.318;2023-02-16T04:38:57;32.63;;;21.03;;
3916;SDS011;1973;50.518;7.318;2023-02-16T04:41:23;36.60;;;21.33;;
3916;SDS011;1973;50.518;7.318;2023-02-16T04:43:52;39.37;;;24.90;;
3916;SDS011;1973;50.518;7.318;2023-02-16T04:46:18;37.83;;;23.50;;
3916;SDS011;1973;50.518;7.318;2023-02-16T04:48:45;39.40;;;22.87;;
3916;SDS011;1973;50.518;7.318;2023-02-16T04:51:12;36.30;;;23.20;;
3916;SDS011;1973;50.518;7.318;2023-02-16T04:53:38;35.20;;;20.70;;
3916;SDS011;1973;50.518;7.318;2023-02-16T04:56:07;31.20;;;20.70;;
3916;SDS011;1973;50.518;7.318;2023-02-16T04:58:35;31.60;;;19.73;;
3916;SDS011;1973;50.518;7.318;2023-02-16T05:01:01;29.00;;;18.03;;
3916;SDS011;1973;50.518;7.318;2023-02-16T05:03:29;31.07;;;18.97;;
3916;SDS011;1973;50.518;7.318;2023-02-16T05:05:55;32.27;;;19.50;;
3916;SDS011;1973;50.518;7.318;2023-02-16T05:08:22;33.97;;;21.17;;
3916;SDS011;1973;50.518;7.318;2023-02-16T05:10:48;36.27;;;20.80;;
3916;SDS011;1973;50.518;7.318;2023-02-16T05:13:33;28.40;;;17.40;;
3916;SDS011;1973;50.518;7.318;2023-02-16T05:16:19;30.83;;;18.80;;
3916;SDS011;1973;50.518;7.318;2023-02-16T05:18:47;37.37;;;20.90;;
3916;SDS011;1973;50.518;7.318;2023-02-16T05:21:14;32.57;;;19.07;;
3916;SDS011;1973;50.518;7.318;2023-02-16T05:23:59;29.17;;;17.47;;
3916;SDS011;1973;50.518;7.318;2023-02-16T05:26:30;26.53;;;17.03;;
3916;SDS011;1973;50.518;7.318;2023-02-16T05:28:57;32.17;;;19.50;;
3916;SDS011;1973;50.518;7.318;2023-02-16T05:31:24;31.63;;;20.03;;
3916;SDS011;1973;50.518;7.318;2023-02-16T05:33:51;34.93;;;20.93;;
3916;SDS011;1973;50.518;7.318;2023-02-16T05:36:18;32.17;;;20.20;;
3916;SDS011;1973;50.518;7.318;2023-02-16T05:38:45;32.07;;;19.60;;
3916;SDS011;1973;50.518;7.318;2023-02-16T05:41:11;32.90;;;20.27;;
3916;SDS011;1973;50.518;7.318;2023-02-16T05:43:51;35.43;;;21.63;;
3916;SDS011;1973;50.518;7.318;2023-02-16T05:46:20;38.37;;;22.83;;
3916;SDS011;1973;50.518;7.318;2023-02-16T05:48:47;32.50;;;19.90;;
3916;SDS011;1973;50.518;7.318;2023-02-16T05:51:14;39.60;;;22.00;;
3916;SDS011;1973;50.518;7.318;2023-02-16T05:53:41;34.20;;;21.10;;
3916;SDS011;1973;50.518;7.318;2023-02-16T05:56:07;31.33;;;19.60;;
3916;SDS011;1973;50.518;7.318;2023-02-16T05:58:34;34.40;;;20.10;;
3916;SDS011;1973;50.518;7.318;2023-02-16T06:01:01;34.27;;;20.50;;
3916;SDS011;1973;50.518;7.318;2023-02-16T06:03:28;37.00;;;21.27;;
3916;SDS011;1973;50.518;7.318;2023-02-16T06:05:55;37.03;;;21.70;;
3916;SDS011;1973;50.518;7.318;2023-02-16T06:08:23;37.27;;;22.67;;
3916;SDS011;1973;50.518;7.318;2023-02-16T06:10:50;42.90;;;24.20;;
3916;SDS011;1973;50.518;7.318;2023-02-16T06:13:18;34.33;;;21.10;;
3916;SDS011;1973;50.518;7.318;2023-02-16T06:15:46;39.53;;;21.40;;
3916;SDS011;1973;50.518;7.318;2023-02-16T06:18:13;38.33;;;23.93;;
3916;SDS011;1973;50.518;7.318;2023-02-16T06:20:41;42.93;;;23.63;;
3916;SDS011;1973;50.518;7.318;2023-02-16T06:23:08;42.23;;;23.80;;
3916;SDS011;1973;50.518;7.318;2023-02-16T06:25:36;32.23;;;20.03;;
3916;SDS011;1973;50.518;7.318;2023-02-16T06:28:02;35.57;;;21.30;;
3916;SDS011;1973;50.518;7.318;2023-02-16T06:30:29;36.27;;;23.10;;
3916;SDS011;1973;50.518;7.318;2023-02-16T06:32:56;32.17;;;19.17;;
3916;SDS011;1973;50.518;7.318;2023-02-16T06:35:23;33.80;;;20.30;;
3916;SDS011;1973;50.518;7.318;2023-02-16T06:37:49;37.27;;;21.83;;
3916;SDS011;1973;50.518;7.318;2023-02-16T06:40:16;38.27;;;22.23;;
3916;SDS011;1973;50.518;7.318;2023-02-16T06:42:43;34.10;;;21.43;;
3916;SDS011;1973;50.518;7.318;2023-02-16T06:45:10;39.77;;;24.00;;
3916;SDS011;1973;50.518;7.318;2023-02-16T06:47:37;39.40;;;22.90;;
3916;SDS011;1973;50.518;7.318;2023-02-16T06:50:05;34.53;;;20.77;;
3916;SDS011;1973;50.518;7.318;2023-02-16T06:52:35;40.93;;;23.20;;
3916;SDS011;1973;50.518;7.318;2023-02-16T06:55:02;40.70;;;23.70;;
3916;SDS011;1973;50.518;7.318;2023-02-16T06:57:29;39.77;;;22.77;;
3916;SDS011;1973;50.518;7.318;2023-02-16T06:59:55;39.93;;;22.37;;
3916;SDS011;1973;50.518;7.318;2023-02-16T07:02:22;32.50;;;21.13;;
3916;SDS011;1973;50.518;7.318;2023-02-16T07:04:48;39.43;;;23.67;;
3916;SDS011;1973;50.518;7.318;2023-02-16T07:07:15;37.50;;;22.80;;
3916;SDS011;1973;50.518;7.318;2023-02-16T07:09:41;38.17;;;22.90;;
3916;SDS011;1973;50.518;7.318;2023-02-16T07:12:08;38.87;;;22.43;;
3916;SDS011;1973;50.518;7.318;2023-02-16T07:14:34;39.10;;;21.73;;
3916;SDS011;1973;50.518;7.318;2023-02-16T07:17:00;36.30;;;21.80;;
3916;SDS011;1973;50.518;7.318;2023-02-16T07:19:30;36.07;;;22.67;;
3916;SDS011;1973;50.518;7.318;2023-02-16T07:22:00;38.13;;;22.90;;
3916;SDS011;1973;50.518;7.318;2023-02-16T07:24:27;38.87;;;22.70;;
3916;SDS011;1973;50.518;7.318;2023-02-16T07:26:53;34.10;;;20.60;;
3916;SDS011;1973;50.518;7.318;2023-02-16T07:29:20;37.63;;;23.10;;
3916;SDS011;1973;50.518;7.318;2023-02-16T07:31:47;38.90;;;24.63;;
3916;SDS011;1973;50.518;7.318;2023-02-16T07:34:14;38.80;;;23.53;;
3916;SDS011;1973;50.518;7.318;2023-02-16T07:36:40;38.23;;;23.73;;
3916;SDS011;1973;50.518;7.318;2023-02-16T07:39:07;40.83;;;24.57;;
3916;SDS011;1973;50.518;7.318;2023-02-16T07:41:33;45.03;;;26.47;;
3916;SDS011;1973;50.518;7.318;2023-02-16T07:44:00;42.53;;;25.53;;
3916;SDS011;1973;50.518;7.318;2023-02-16T07:46:26;43.97;;;27.10;;
3916;SDS011;1973;50.518;7.318;2023-02-16T07:48:52;38.73;;;25.23;;
3916;SDS011;1973;50.518;7.318;2023-02-16T07:51:22;46.07;;;27.93;;
3916;SDS011;1973;50.518;7.318;2023-02-16T07:53:50;45.00;;;25.23;;
3916;SDS011;1973;50.518;7.318;2023-02-16T07:56:17;40.33;;;24.87;;
3916;SDS011;1973;50.518;7.318;2023-02-16T07:58:45;37.50;;;23.43;;
3916;SDS011;1973;50.518;7.318;2023-02-16T08:01:12;40.10;;;24.47;;
3916;SDS011;1973;50.518;7.318;2023-02-16T08:03:41;37.43;;;24.53;;
3916;SDS011;1973;50.518;7.318;2023-02-16T08:06:07;36.90;;;24.87;;
3916;SDS011;1973;50.518;7.318;2023-02-16T08:08:35;42.50;;;24.20;;
3916;SDS011;1973;50.518;7.318;2023-02-16T08:11:13;34.37;;;23.20;;
3916;SDS011;1973;50.518;7.318;2023-02-16T08:13:44;38.57;;;24.73;;
3916;SDS011;1973;50.518;7.318;2023-02-16T08:16:15;39.27;;;23.90;;
3916;SDS011;1973;50.518;7.318;2023-02-16T08:18:44;39.17;;;24.40;;
3916;SDS011;1973;50.518;7.318;2023-02-16T08:21:14;34.67;;;22.40;;
3916;SDS011;1973;50.518;7.318;2023-02-16T08:23:44;32.67;;;20.90;;
3916;SDS011;1973;50.518;7.318;2023-02-16T08:26:15;36.57;;;23.63;;
3916;SDS011;1973;50.518;7.318;2023-02-16T08:28:42;40.07;;;23.10;;
3916;SDS011;1973;50.518;7.318;2023-02-16T08:31:16;36.50;;;22.47;;
3916;SDS011;1973;50.518;7.318;2023-02-16T08:33:44;37.20;;;24.00;;
3916;SDS011;1973;50.518;7.318;2023-02-16T08:36:16;37.73;;;25.13;;
3916;SDS011;1973;50.518;7.318;2023-02-16T08:38:50;38.70;;;24.30;;
3916;SDS011;1973;50.518;7.318;2023-02-16T08:41:18;36.60;;;23.97;;
3916;SDS011;1973;50.518;7.318;2023-02-16T08:43:46;39.77;;;24.70;;
3916;SDS011;1973;50.518;7.318;2023-02-16T08:46:13;40.80;;;26.30;;
3916;SDS011;1973;50.518;7.318;2023-02-16T08:48:40;38.77;;;23.77;;
3916;SDS011;1973;50.518;7.318;2023-02-16T08:51:11;41.27;;;24.60;;
3916;SDS011;1973;50.518;7.318;2023-02-16T08:53:39;34.57;;;24.40;;
3916;SDS011;1973;50.518;7.318;2023-02-16T08:56:05;37.97;;;24.90;;
3916;SDS011;1973;50.518;7.318;2023-02-16T08:58:34;37.20;;;24.60;;
3916;SDS011;1973;50.518;7.318;2023-02-16T09:01:03;38.90;;;25.00;;
3916;SDS011;1973;50.518;7.318;2023-02-16T09:03:33;39.03;;;24.00;;
3916;SDS011;1973;50.518;7.318;2023-02-16T09:06:01;33.90;;;23.10;;
3916;SDS011;1973;50.518;7.318;2023-02-16T09:08:30;34.20;;;22.60;;
3916;SDS011;1973;50.518;7.318;2023-02-16T09:11:03;36.00;;;23.60;;
3916;SDS011;1973;50.518;7.318;2023-02-16T09:13:34;34.07;;;22.43;;
3916;SDS011;1973;50.518;7.318;2023-02-16T09:16:03;32.50;;;22.20;;
3916;SDS011;1973;50.518;7.318;2023-02-16T09:18:35;40.97;;;24.70;;
3916;SDS011;1973;50.518;7.318;2023-02-16T09:21:06;37.70;;;23.90;;
3916;SDS011;1973;50.518;7.318;2023-02-16T09:23:39;40.63;;;24.93;;
3916;SDS011;1973;50.518;7.318;2023-02-16T09:26:09;37.97;;;23.70;;
3916;SDS011;1973;50.518;7.318;2023-02-16T09:28:36;37.30;;;22.93;;
3916;SDS011;1973;50.518;7.318;2023-02-16T09:31:08;38.40;;;24.53;;
3916;SDS011;1973;50.518;7.318;2023-02-16T09:33:39;40.60;;;25.30;;
3916;SDS011;1973;50.518;7.318;2023-02-16T09:36:07;39.27;;;25.97;;
3916;SDS011;1973;50.518;7.318;2023-02-16T09:38:37;38.43;;;25.60;;
3916;SDS011;1973;50.518;7.318;2023-02-16T09:41:25;39.03;;;27.07;;
3916;SDS011;1973;50.518;7.318;2023-02-16T09:46:26;37.87;;;27.67;;
3916;SDS011;1973;50.518;7.318;2023-02-16T09:48:55;42.30;;;26.60;;
3916;SDS011;1973;50.518;7.318;2023-02-16T09:51:24;48.57;;;27.13;;
3916;SDS011;1973;50.518;7.318;2023-02-16T09:54:30;41.83;;;26.40;;
3916;SDS011;1973;50.518;7.318;2023-02-16T09:57:37;47.37;;;26.03;;
3916;SDS011;1973;50.518;7.318;2023-02-16T10:00:20;39.83;;;26.10;;
3916;SDS011;1973;50.518;7.318;2023-02-16T10:03:12;43.27;;;26.20;;
3916;SDS011;1973;50.518;7.318;2023-02-16T10:08:46;41.43;;;27.13;;
3916;SDS011;1973;50.518;7.318;2023-02-16T10:14:14;42.37;;;26.03;;
3916;SDS011;1973;50.518;7.318;2023-02-16T10:16:49;41.23;;;25.40;;
3916;SDS011;1973;50.518;7.318;2023-02-16T10:19:38;43.53;;;29.43;;
3916;SDS011;1973;50.518;7.318;2023-02-16T10:22:13;36.00;;;25.50;;
3916;SDS011;1973;50.518;7.318;2023-02-16T10:24:47;35.20;;;25.00;;
3916;SDS011;1973;50.518;7.318;2023-02-16T10:27:26;35.10;;;24.67;;
3916;SDS011;1973;50.518;7.318;2023-02-16T10:29:58;37.20;;;26.67;;
3916;SDS011;1973;50.518;7.318;2023-02-16T10:32:25;37.27;;;25.40;;
3916;SDS011;1973;50.518;7.318;2023-02-16T10:35:12;32.27;;;22.97;;
3916;SDS011;1973;50.518;7.318;2023-02-16T10:40:40;35.70;;;25.97;;
3916;SDS011;1973;50.518;7.318;2023-02-16T10:43:24;35.30;;;25.03;;
3916;SDS011;1973;50.518;7.318;2023-02-16T10:46:04;32.57;;;25.03;;
3916;SDS011;1973;50.518;7.318;2023-02-16T10:48:32;31.57;;;23.60;;
3916;SDS011;1973;50.518;7.318;2023-02-16T10:51:02;37.93;;;25.87;;
3916;SDS011;1973;50.518;7.318;2023-02-16T10:56:48;33.20;;;23.87;;
3916;SDS011;1973;50.518;7.318;2023-02-16T11:04:52;34.43;;;25.47;;
3916;SDS011;1973;50.518;7.318;2023-02-16T11:07:22;33.93;;;24.57;;
3916;SDS011;1973;50.518;7.318;2023-02-16T11:09:50;35.03;;;25.27;;
3916;SDS011;1973;50.518;7.318;2023-02-16T11:12:25;33.07;;;24.30;;
3916;SDS011;1973;50.518;7.318;2023-02-16T11:15:03;38.67;;;26.40;;
3916;SDS011;1973;50.518;7.318;2023-02-16T11:17:46;35.00;;;25.27;;
3916;SDS011;1973;50.518;7.318;2023-02-16T11:20:26;35.23;;;25.63;;
3916;SDS011;1973;50.518;7.318;2023-02-16T11:28:41;34.50;;;26.47;;
3916;SDS011;1973;50.518;7.318;2023-02-16T11:31:11;36.20;;;23.80;;
3916;SDS011;1973;50.518;7.318;2023-02-16T11:33:53;37.17;;;26.43;;
3916;SDS011;1973;50.518;7.318;2023-02-16T11:36:38;34.10;;;24.10;;
3916;SDS011;1973;50.518;7.318;2023-02-16T11:44:26;32.67;;;23.73;;
3916;SDS011;1973;50.518;7.318;2023-02-16T11:47:01;31.03;;;24.37;;
3916;SDS011;1973;50.518;7.318;2023-02-16T11:49:32;33.90;;;25.17;;
3916;SDS011;1973;50.518;7.318;2023-02-16T11:52:16;31.47;;;24.37;;
3916;SDS011;1973;50.518;7.318;2023-02-16T11:54:53;32.63;;;24.60;;
3916;SDS011;1973;50.518;7.318;2023-02-16T11:57:23;36.10;;;26.93;;
3916;SDS011;1973;50.518;7.318;2023-02-16T11:59:54;33.27;;;25.23;;
3916;SDS011;1973;50.518;7.318;2023-02-16T12:07:59;37.00;;;26.80;;
3916;SDS011;1973;50.518;7.318;2023-02-16T12:13:43;36.03;;;26.57;;
3916;SDS011;1973;50.518;7.318;2023-02-16T12:16:26;33.00;;;25.47;;
3916;SDS011;1973;50.518;7.318;2023-02-16T12:21:46;33.10;;;25.47;;
3916;SDS011;1973;50.518;7.318;2023-02-16T12:27:02;32.40;;;25.37;;
3916;SDS011;1973;50.518;7.318;2023-02-16T12:32:20;32.23;;;24.80;;
3916;SDS011;1973;50.518;7.318;2023-02-16T12:46:54;32.47;;;24.40;;
3916;SDS011;1973;50.518;7.318;2023-02-16T12:48:59;36.17;;;26.63;;
3916;SDS011;1973;50.518;7.318;2023-02-16T12:51:36;40.97;;;27.93;;
3916;SDS011;1973;50.518;7.318;2023-02-16T12:54:08;34.57;;;26.23;;
3916;SDS011;1973;50.518;7.318;2023-02-16T12:56:44;32.80;;;25.90;;
3916;SDS011;1973;50.518;7.318;2023-02-16T12:59:25;34.30;;;27.27;;
3916;SDS011;1973;50.518;7.318;2023-02-16T13:02:00;35.00;;;25.73;;
3916;SDS011;1973;50.518;7.318;2023-02-16T13:07:33;39.13;;;27.60;;
3916;SDS011;1973;50.518;7.318;2023-02-16T13:12:33;38.80;;;27.83;;
3916;SDS011;1973;50.518;7.318;2023-02-16T13:15:12;37.57;;;28.43;;
3916;SDS011;1973;50.518;7.318;2023-02-16T13:17:43;41.97;;;28.90;;
3916;SDS011;1973;50.518;7.318;2023-02-16T13:20:14;39.53;;;28.07;;
3916;SDS011;1973;50.518;7.318;2023-02-16T13:22:46;35.77;;;26.57;;
3916;SDS011;1973;50.518;7.318;2023-02-16T13:28:08;35.43;;;25.13;;
3916;SDS011;1973;50.518;7.318;2023-02-16T13:41:41;35.57;;;26.87;;
3916;SDS011;1973;50.518;7.318;2023-02-16T13:47:20;31.00;;;24.60;;
3916;SDS011;1973;50.518;7.318;2023-02-16T13:49:59;35.90;;;26.10;;
3916;SDS011;1973;50.518;7.318;2023-02-16T13:52:29;37.33;;;28.43;;
3916;SDS011;1973;50.518;7.318;2023-02-16T13:54:59;36.53;;;26.80;;
3916;SDS011;1973;50.518;7.318;2023-02-16T14:00:35;38.00;;;27.40;;
3916;SDS011;1973;50.518;7.318;2023-02-16T14:05:48;34.90;;;25.40;;
3916;SDS011;1973;50.518;7.318;2023-02-16T14:08:24;32.90;;;25.57;;
3916;SDS011;1973;50.518;7.318;2023-02-16T14:10:59;38.17;;;25.73;;
3916;SDS011;1973;50.518;7.318;2023-02-16T14:18:40;36.27;;;28.13;;
3916;SDS011;1973;50.518;7.318;2023-02-16T14:21:17;43.23;;;29.97;;
3916;SDS011;1973;50.518;7.318;2023-02-16T14:23:53;37.63;;;28.13;;
3916;SDS011;1973;50.518;7.318;2023-02-16T14:26:22;39.87;;;28.97;;
3916;SDS011;1973;50.518;7.318;2023-02-16T14:31:39;32.27;;;24.73;;
3916;SDS011;1973;50.518;7.318;2023-02-16T14:34:16;35.23;;;25.80;;
3916;SDS011;1973;50.518;7.318;2023-02-16T14:37:37;40.57;;;30.27;;
3916;SDS011;1973;50.518;7.318;2023-02-16T14:42:47;35.53;;;26.67;;
3916;SDS011;1973;50.518;7.318;2023-02-16T14:45:21;36.17;;;27.83;;
3916;SDS011;1973;50.518;7.318;2023-02-16T14:48:23;36.03;;;27.03;;
3916;SDS011;1973;50.518;7.318;2023-02-16T14:54:07;35.67;;;27.90;;
3916;SDS011;1973;50.518;7.318;2023-02-16T14:57:01;35.50;;;27.30;;
3916;SDS011;1973;50.518;7.318;2023-02-16T14:59:45;30.57;;;24.10;;
3916;SDS011;1973;50.518;7.318;2023-02-16T15:02:34;30.50;;;24.50;;
3916;SDS011;1973;50.518;7.318;2023-02-16T15:05:15;30.13;;;25.30;;
3916;SDS011;1973;50.518;7.318;2023-02-16T15:07:45;29.47;;;21.57;;
3916;SDS011;1973;50.518;7.318;2023-02-16T15:10:18;27.03;;;21.17;;
3916;SDS011;1973;50.518;7.318;2023-02-16T15:12:52;28.93;;;22.33;;
3916;SDS011;1973;50.518;7.318;2023-02-16T15:15:23;29.73;;;21.90;;
3916;SDS011;1973;50.518;7.318;2023-02-16T15:18:17;28.33;;;21.60;;
3916;SDS011;1973;50.518;7.318;2023-02-16T15:20:48;28.10;;;22.33;;
3916;SDS011;1973;50.518;7.318;2023-02-16T15:23:22;24.87;;;20.70;;
3916;SDS011;1973;50.518;7.318;2023-02-16T15:25:52;27.87;;;20.23;;
3916;SDS011;1973;50.518;7.318;2023-02-16T15:28:33;30.40;;;20.97;;
3916;SDS011;1973;50.518;7.318;2023-02-16T15:31:05;29.90;;;21.10;;
3916;SDS011;1973;50.518;7.318;2023-02-16T15:33:36;25.70;;;20.17;;
3916;SDS011;1973;50.518;7.318;2023-02-16T15:36:06;27.07;;;22.30;;
3916;SDS011;1973;50.518;7.318;2023-02-16T15:38:38;25.77;;;20.70;;
3916;SDS011;1973;50.518;7.318;2023-02-16T15:41:08;24.90;;;20.50;;
3916;SDS011;1973;50.518;7.318;2023-02-16T15:46:16;25.47;;;20.40;;
3916;SDS011;1973;50.518;7.318;2023-02-16T15:48:49;30.00;;;21.57;;
3916;SDS011;1973;50.518;7.318;2023-02-16T15:51:34;22.10;;;17.87;;
3916;SDS011;1973;50.518;7.318;2023-02-16T15:54:07;28.10;;;20.60;;
3916;SDS011;1973;50.518;7.318;2023-02-16T15:56:48;24.80;;;21.20;;
3916;SDS011;1973;50.518;7.318;2023-02-16T15:59:32;26.33;;;21.67;;
3916;SDS011;1973;50.518;7.318;2023-02-16T16:04:51;27.23;;;21.30;;
3916;SDS011;1973;50.518;7.318;2023-02-16T16:07:28;30.17;;;20.70;;
3916;SDS011;1973;50.518;7.318;2023-02-16T16:09:58;25.37;;;21.27;;
3916;SDS011;1973;50.518;7.318;2023-02-16T16:12:25;27.60;;;20.47;;
3916;SDS011;1973;50.518;7.318;2023-02-16T16:14:54;24.83;;;20.90;;
3916;SDS011;1973;50.518;7.318;2023-02-16T16:17:27;26.70;;;21.20;;
3916;SDS011;1973;50.518;7.318;2023-02-16T16:19:57;27.80;;;22.70;;
3916;SDS011;1973;50.518;7.318;2023-02-16T16:22:42;24.53;;;21.27;;
3916;SDS011;1973;50.518;7.318;2023-02-16T16:25:29;23.63;;;19.60;;
3916;SDS011;1973;50.518;7.318;2023-02-16T16:28:04;27.40;;;21.27;;
3916;SDS011;1973;50.518;7.318;2023-02-16T16:30:33;23.07;;;18.87;;
3916;SDS011;1973;50.518;7.318;2023-02-16T16:33:03;22.10;;;18.30;;
3916;SDS011;1973;50.518;7.318;2023-02-16T16:35:42;23.07;;;16.20;;
3916;SDS011;1973;50.518;7.318;2023-02-16T16:38:26;26.20;;;18.60;;
3916;SDS011;1973;50.518;7.318;2023-02-16T16:40:59;22.77;;;17.93;;
3916;SDS011;1973;50.518;7.318;2023-02-16T16:43:29;19.97;;;16.57;;
3916;SDS011;1973;50.518;7.318;2023-02-16T16:48:33;20.60;;;16.40;;
3916;SDS011;1973;50.518;7.318;2023-02-16T16:56:18;20.90;;;16.47;;
3916;SDS011;1973;50.518;7.318;2023-02-16T16:58:52;22.33;;;16.43;;
3916;SDS011;1973;50.518;7.318;2023-02-16T17:01:22;20.63;;;15.17;;
3916;SDS011;1973;50.518;7.318;2023-02-16T17:03:49;22.47;;;17.50;;
3916;SDS011;1973;50.518;7.318;2023-02-16T17:06:16;25.90;;;18.87;;
3916;SDS011;1973;50.518;7.318;2023-02-16T17:08:43;24.50;;;18.10;;
3916;SDS011;1973;50.518;7.318;2023-02-16T17:11:29;19.53;;;16.97;;
3916;SDS011;1973;50.518;7.318;2023-02-16T17:14:06;23.13;;;16.93;;
3916;SDS011;1973;50.518;7.318;2023-02-16T17:16:36;20.90;;;16.30;;
3916;SDS011;1973;50.518;7.318;2023-02-16T17:19:05;23.43;;;18.07;;
3916;SDS011;1973;50.518;7.318;2023-02-16T17:21:32;28.43;;;18.60;;
3916;SDS011;1973;50.518;7.318;2023-02-16T17:23:58;20.33;;;16.60;;
3916;SDS011;1973;50.518;7.318;2023-02-16T17:26:25;20.83;;;16.50;;
3916;SDS011;1973;50.518;7.318;2023-02-16T17:28:51;19.07;;;15.30;;
3916;SDS011;1973;50.518;7.318;2023-02-16T17:31:18;20.20;;;16.00;;
3916;SDS011;1973;50.518;7.318;2023-02-16T17:33:45;19.97;;;15.83;;
3916;SDS011;1973;50.518;7.318;2023-02-16T17:36:12;19.50;;;16.00;;
3916;SDS011;1973;50.518;7.318;2023-02-16T17:38:40;20.57;;;16.30;;
3916;SDS011;1973;50.518;7.318;2023-02-16T17:41:12;19.17;;;15.30;;
3916;SDS011;1973;50.518;7.318;2023-02-16T17:43:44;20.17;;;16.67;;
3916;SDS011;1973;50.518;7.318;2023-02-16T17:46:10;17.50;;;14.97;;
3916;SDS011;1973;50.518;7.318;2023-02-16T17:48:38;21.23;;;15.40;;
3916;SDS011;1973;50.518;7.318;2023-02-16T17:51:05;21.97;;;15.37;;
3916;SDS011;1973;50.518;7.318;2023-02-16T17:53:38;19.57;;;15.43;;
3916;SDS011;1973;50.518;7.318;2023-02-16T17:56:08;19.70;;;16.20;;
3916;SDS011;1973;50.518;7.318;2023-02-16T17:58:36;19.30;;;17.00;;
3916;SDS011;1973;50.518;7.318;2023-02-16T18:01:03;23.07;;;16.43;;
3916;SDS011;1973;50.518;7.318;2023-02-16T18:03:30;25.17;;;21.27;;